createdAt,value
2022-12-22T00:01:55.585Z,7.10
2022-12-22T00:04:41.992Z,7.20
2022-12-22T00:07:27.585Z,7.10
2022-12-22T00:10:13.373Z,7.10
2022-12-22T00:12:59.759Z,7.10
2022-12-22T00:15:46.850Z,7.10
2022-12-22T00:18:36.351Z,7.10
2022-12-22T00:21:22.131Z,7.10
2022-12-22T00:24:07.736Z,7.10
2022-12-22T00:26:54.820Z,7.10
2022-12-22T00:29:40.552Z,7.10
2022-12-22T00:32:32.331Z,7.10
2022-12-22T00:35:19.092Z,7.10
2022-12-22T00:38:04.773Z,7.10
2022-12-22T00:40:50.494Z,7.10
2022-12-22T00:43:36.157Z,7.10
2022-12-22T00:46:23.077Z,7.10
2022-12-22T00:49:09.891Z,7.10
2022-12-22T00:51:55.738Z,7.10
2022-12-22T00:54:42.098Z,7.10
2022-12-22T01:00:36.856Z,7.10
2022-12-22T01:03:23.241Z,7.20
2022-12-22T01:06:08.895Z,7.20
2022-12-22T01:08:55.124Z,7.20
2022-12-22T01:11:40.812Z,7.20
2022-12-22T01:14:33.146Z,7.20
2022-12-22T01:17:18.946Z,7.20
2022-12-22T01:20:04.853Z,7.20
2022-12-22T01:22:51.174Z,7.20
2022-12-22T01:25:37.879Z,7.20
2022-12-22T01:28:24.139Z,7.20
2022-12-22T01:31:09.958Z,7.20
2022-12-22T01:33:55.601Z,7.30
2022-12-22T01:36:41.386Z,7.20
2022-12-22T01:39:27.258Z,7.20
2022-12-22T01:42:13.267Z,7.20
2022-12-22T01:44:58.878Z,7.30
2022-12-22T01:47:47.519Z,7.30
2022-12-22T01:50:39.802Z,7.30
2022-12-22T01:53:26.931Z,7.30
2022-12-22T01:56:12.984Z,7.30
2022-12-22T01:59:05.356Z,7.30
2022-12-22T02:01:51.826Z,7.30
2022-12-22T02:04:40.692Z,7.40
2022-12-22T02:07:56.657Z,7.40
2022-12-22T02:11:02.889Z,7.40
2022-12-22T02:13:58.601Z,7.40
2022-12-22T02:16:58.483Z,7.50
2022-12-22T02:20:05.537Z,7.50
2022-12-22T02:23:05.185Z,7.50
2022-12-22T02:26:00.975Z,7.50
2022-12-22T02:28:47.443Z,7.50
2022-12-22T02:31:33.156Z,7.50
2022-12-22T02:34:18.838Z,7.60
2022-12-22T02:37:22.736Z,7.60
2022-12-22T02:40:32.305Z,7.60
2022-12-22T02:43:43.456Z,7.60
2022-12-22T02:46:49.497Z,7.60
2022-12-22T02:49:40.795Z,7.70
2022-12-22T02:52:41.346Z,7.60
2022-12-22T02:55:27.588Z,7.60
2022-12-22T02:58:13.153Z,7.60
2022-12-22T03:00:59.474Z,7.60
2022-12-22T03:03:45.336Z,7.70
2022-12-22T03:06:31.075Z,7.80
2022-12-22T03:09:16.715Z,7.70
2022-12-22T03:12:02.335Z,7.70
2022-12-22T03:14:48.044Z,7.70
2022-12-22T03:17:33.657Z,7.80
2022-12-22T03:20:19.433Z,7.80
2022-12-22T03:23:05.101Z,7.80
2022-12-22T03:25:50.784Z,7.70
2022-12-22T03:28:18.114Z,7.70
2022-12-22T03:30:45.550Z,7.80
2022-12-22T03:33:12.813Z,7.80
2022-12-22T03:35:40.047Z,7.80
2022-12-22T03:38:07.275Z,7.80
2022-12-22T03:40:34.579Z,7.80
2022-12-22T03:43:20.135Z,7.90
2022-12-22T03:46:05.790Z,7.80
2022-12-22T03:48:33.041Z,7.90
2022-12-22T03:51:00.243Z,7.90
2022-12-22T03:53:27.410Z,7.80
2022-12-22T03:55:54.714Z,7.80
2022-12-22T03:58:21.942Z,7.90
2022-12-22T04:00:49.211Z,7.90
2022-12-22T04:03:17.494Z,7.90
2022-12-22T04:05:45.824Z,7.90
2022-12-22T04:08:13.015Z,7.90
2022-12-22T04:10:58.595Z,7.90
2022-12-22T04:13:25.993Z,7.90
2022-12-22T04:15:53.177Z,8.00
2022-12-22T04:18:20.391Z,8.00
2022-12-22T04:20:49.136Z,8.00
2022-12-22T04:23:16.314Z,8.00
2022-12-22T04:25:43.690Z,8.00
2022-12-22T04:28:10.903Z,7.90
2022-12-22T04:30:38.111Z,8.00
2022-12-22T04:33:05.465Z,8.00
2022-12-22T04:35:32.731Z,8.10
2022-12-22T04:38:00.054Z,8.00
2022-12-22T04:40:27.435Z,8.10
2022-12-22T04:42:54.741Z,8.00
2022-12-22T04:45:21.886Z,8.00
2022-12-22T04:47:49.202Z,8.00
2022-12-22T04:50:16.618Z,8.00
2022-12-22T04:52:43.800Z,8.00
2022-12-22T04:55:11.263Z,8.00
2022-12-22T04:57:40.768Z,8.00
2022-12-22T05:00:09.450Z,8.00
2022-12-22T05:02:36.726Z,8.00
2022-12-22T05:05:04.170Z,8.00
2022-12-22T05:07:31.393Z,8.00
2022-12-22T05:09:58.925Z,8.00
2022-12-22T05:12:44.795Z,8.00
2022-12-22T05:15:12.041Z,8.00
2022-12-22T05:17:39.405Z,8.00
2022-12-22T05:20:07.379Z,8.00
2022-12-22T05:22:37.791Z,8.00
2022-12-22T05:25:05.665Z,7.90
2022-12-22T05:27:32.875Z,8.00
2022-12-22T05:30:00.186Z,7.90
2022-12-22T05:32:27.469Z,8.00
2022-12-22T05:34:54.723Z,8.00
2022-12-22T05:37:21.918Z,8.00
2022-12-22T05:39:49.180Z,8.00
2022-12-22T05:42:35.894Z,8.10
2022-12-22T05:45:12.516Z,8.10
2022-12-22T05:47:40.381Z,8.20
2022-12-22T05:50:09.471Z,8.20
2022-12-22T05:52:36.824Z,8.10
2022-12-22T05:55:04.866Z,8.10
2022-12-22T05:57:32.194Z,8.20
2022-12-22T05:59:59.462Z,8.20
2022-12-22T06:02:27.355Z,8.20
2022-12-22T06:04:54.666Z,8.30
2022-12-22T06:07:21.986Z,8.20
2022-12-22T06:09:49.218Z,8.20
2022-12-22T06:12:16.594Z,8.20
2022-12-22T06:14:43.987Z,8.20
2022-12-22T06:17:11.228Z,8.20
2022-12-22T06:19:38.651Z,8.20
2022-12-22T06:22:05.875Z,8.30
2022-12-22T06:24:33.062Z,8.30
2022-12-22T06:27:00.656Z,8.20
2022-12-22T06:29:28.032Z,8.30
2022-12-22T06:31:55.357Z,8.40
2022-12-22T06:34:24.043Z,8.40
2022-12-22T06:36:51.610Z,8.40
2022-12-22T06:39:19.146Z,8.40
2022-12-22T06:42:04.897Z,8.50
2022-12-22T06:44:32.186Z,8.40
2022-12-22T06:46:59.515Z,8.50
2022-12-22T06:49:26.929Z,8.50
2022-12-22T06:51:54.338Z,8.50
2022-12-22T06:54:26.115Z,8.50
2022-12-22T06:56:53.858Z,8.50
2022-12-22T06:59:21.257Z,8.50
2022-12-22T07:01:48.628Z,8.50
2022-12-22T07:04:20.867Z,8.50
2022-12-22T07:06:48.490Z,8.50
2022-12-22T07:09:15.886Z,8.60
2022-12-22T07:11:43.327Z,8.50
2022-12-22T07:14:11.549Z,8.50
2022-12-22T07:16:38.902Z,8.50
2022-12-22T07:19:06.273Z,8.50
2022-12-22T07:21:33.635Z,8.40
2022-12-22T07:24:00.997Z,8.40
2022-12-22T07:26:28.310Z,8.40
2022-12-22T07:28:55.477Z,8.40
2022-12-22T07:31:22.774Z,8.50
2022-12-22T07:33:50.133Z,8.40
2022-12-22T07:36:19.879Z,8.40
2022-12-22T07:38:49.561Z,8.40
2022-12-22T07:41:38.190Z,8.50
2022-12-22T07:44:07.478Z,8.50
2022-12-22T07:46:37.246Z,8.60
2022-12-22T07:49:26.689Z,8.60
2022-12-22T07:51:56.933Z,8.70
2022-12-22T07:54:24.710Z,8.70
2022-12-22T07:56:52.627Z,8.70
2022-12-22T07:59:20.457Z,8.70
2022-12-22T08:01:47.763Z,8.80
2022-12-22T08:04:15.800Z,8.80
2022-12-22T08:06:43.127Z,8.90
2022-12-22T08:09:14.651Z,8.90
2022-12-22T08:11:41.975Z,8.90
2022-12-22T08:14:09.519Z,8.90
2022-12-22T08:16:36.857Z,8.90
2022-12-22T08:19:04.156Z,9.00
2022-12-22T08:21:31.441Z,8.90
2022-12-22T08:23:58.698Z,8.90
2022-12-22T08:26:32.596Z,8.90
2022-12-22T08:29:09.037Z,9.00
2022-12-22T08:31:36.542Z,9.00
2022-12-22T08:34:06.900Z,9.10
2022-12-22T08:36:38.289Z,9.10
2022-12-22T08:39:06.256Z,9.20
2022-12-22T08:41:50.020Z,9.20
2022-12-22T08:44:23.128Z,9.30
2022-12-22T08:46:51.638Z,9.30
2022-12-22T08:49:19.494Z,9.30
2022-12-22T08:51:47.337Z,9.40
2022-12-22T08:54:15.527Z,9.40
2022-12-22T08:56:43.936Z,9.50
2022-12-22T08:59:12.088Z,9.60
2022-12-22T09:01:44.497Z,9.70
2022-12-22T09:04:20.467Z,9.80
2022-12-22T09:06:48.069Z,9.80
2022-12-22T09:09:16.669Z,9.80
2022-12-22T09:11:44.129Z,10.00
2022-12-22T09:14:12.071Z,10.10
2022-12-22T09:16:40.579Z,10.20
2022-12-22T09:19:08.397Z,10.20
2022-12-22T09:21:36.354Z,10.20
2022-12-22T09:24:07.790Z,10.40
2022-12-22T09:26:35.390Z,10.50
2022-12-22T09:29:03.312Z,10.50
2022-12-22T09:31:30.916Z,10.60
2022-12-22T09:33:58.771Z,10.60
2022-12-22T09:36:28.373Z,10.60
2022-12-22T09:38:55.779Z,10.60
2022-12-22T09:41:25.663Z,10.60
2022-12-22T09:43:53.083Z,10.70
2022-12-22T09:46:31.655Z,10.60
2022-12-22T09:48:59.435Z,10.60
2022-12-22T09:51:27.719Z,10.50
2022-12-22T09:53:59.386Z,10.50
2022-12-22T09:56:28.981Z,10.70
2022-12-22T09:58:56.485Z,10.80
2022-12-22T10:01:42.367Z,10.80
2022-12-22T10:04:34.485Z,10.80
2022-12-22T10:07:16.799Z,11.10
2022-12-22T10:09:52.152Z,11.30
2022-12-22T10:12:23.131Z,11.30
2022-12-22T10:14:52.909Z,11.30
2022-12-22T10:17:29.180Z,11.30
2022-12-22T10:20:21.595Z,11.40
2022-12-22T10:23:00.993Z,11.30
2022-12-22T10:25:45.180Z,11.30
2022-12-22T10:28:22.220Z,11.30
2022-12-22T10:30:49.531Z,11.20
2022-12-22T10:33:19.029Z,11.10
2022-12-22T10:35:56.274Z,11.40
2022-12-22T10:38:37.405Z,11.60
2022-12-22T10:41:20.609Z,11.70
2022-12-22T10:44:05.335Z,11.70
2022-12-22T10:46:42.743Z,11.60
2022-12-22T10:52:23.813Z,11.50
2022-12-22T10:55:21.610Z,11.40
2022-12-22T10:57:50.104Z,11.30
2022-12-22T11:00:28.770Z,11.30
2022-12-22T11:03:00.094Z,11.30
2022-12-22T11:05:28.598Z,11.40
2022-12-22T11:08:19.339Z,11.30
2022-12-22T11:10:52.709Z,11.30
2022-12-22T11:13:47.920Z,11.30
2022-12-22T11:16:53.226Z,11.30
2022-12-22T11:19:39.279Z,11.40
2022-12-22T11:22:06.792Z,11.30
2022-12-22T11:24:53.315Z,11.20
2022-12-22T11:27:29.608Z,11.00
2022-12-22T11:30:05.856Z,10.80
2022-12-22T11:33:02.849Z,10.70
2022-12-22T11:36:00.937Z,10.60
2022-12-22T11:38:50.285Z,10.50
2022-12-22T11:41:26.512Z,10.50
2022-12-22T11:44:11.603Z,10.50
2022-12-22T11:46:55.440Z,10.40
2022-12-22T11:51:01.669Z,10.40
2022-12-22T11:53:31.250Z,10.30
2022-12-22T11:56:20.311Z,10.30
2022-12-22T11:58:53.392Z,10.20
2022-12-22T12:01:35.852Z,10.20
2022-12-22T12:04:15.205Z,10.20
2022-12-22T12:06:48.277Z,10.20
2022-12-22T12:09:15.411Z,10.20
2022-12-22T12:12:04.228Z,10.20
2022-12-22T12:14:50.095Z,10.10
2022-12-22T12:18:02.042Z,10.10
2022-12-22T12:21:03.833Z,10.10
2022-12-22T12:23:53.821Z,10.10
2022-12-22T12:26:41.722Z,10.00
2022-12-22T12:29:22.200Z,10.00
2022-12-22T12:32:00.330Z,10.10
2022-12-22T12:34:31.637Z,10.00
2022-12-22T12:37:09.673Z,10.00
2022-12-22T12:39:39.479Z,10.00
2022-12-22T12:42:33.010Z,10.00
2022-12-22T12:45:03.302Z,10.00
2022-12-22T12:47:32.911Z,10.00
2022-12-22T12:50:19.588Z,9.90
2022-12-22T12:52:48.838Z,10.00
2022-12-22T12:55:31.638Z,9.90
2022-12-22T12:58:04.347Z,9.90
2022-12-22T13:00:34.792Z,9.80
2022-12-22T13:03:06.345Z,9.80
2022-12-22T13:05:51.941Z,9.70
2022-12-22T13:08:27.229Z,9.60
2022-12-22T13:10:54.388Z,9.70
2022-12-22T13:13:24.948Z,9.60
2022-12-22T13:16:04.593Z,9.60
2022-12-22T13:18:34.984Z,9.60
2022-12-22T13:24:28.805Z,9.60
2022-12-22T13:27:03.297Z,9.60
2022-12-22T13:29:40.743Z,9.60
2022-12-22T13:32:33.554Z,9.60
2022-12-22T13:35:33.538Z,9.70
2022-12-22T13:38:03.782Z,9.70
2022-12-22T13:40:39.750Z,9.70
2022-12-22T13:43:15.490Z,9.70
2022-12-22T13:45:51.313Z,9.70
2022-12-22T13:48:21.295Z,9.70
2022-12-22T13:50:50.270Z,9.70
2022-12-22T13:54:08.613Z,9.80
2022-12-22T13:57:02.786Z,9.70
2022-12-22T13:59:42.361Z,9.80
2022-12-22T14:02:09.644Z,9.90
2022-12-22T14:04:39.758Z,9.90
2022-12-22T14:07:19.354Z,9.90
2022-12-22T14:09:50.973Z,9.90
2022-12-22T14:12:30.511Z,9.90
2022-12-22T14:15:01.335Z,9.90
2022-12-22T14:17:37.973Z,9.90
2022-12-22T14:20:28.430Z,9.80
2022-12-22T14:23:07.589Z,9.80
2022-12-22T14:25:38.268Z,9.70
2022-12-22T14:28:11.607Z,9.80
2022-12-22T14:30:43.569Z,9.80
2022-12-22T14:33:30.111Z,9.80
2022-12-22T14:36:16.629Z,9.70
2022-12-22T14:38:47.716Z,9.70
2022-12-22T14:41:43.684Z,9.80
2022-12-22T14:44:23.221Z,9.80
2022-12-22T14:47:15.216Z,9.80
2022-12-22T14:49:50.743Z,9.70
2022-12-22T14:52:22.574Z,9.80
2022-12-22T14:54:52.204Z,9.80
2022-12-22T14:57:32.674Z,9.70
2022-12-22T15:00:09.192Z,9.70
2022-12-22T15:02:40.657Z,9.60
2022-12-22T15:05:17.011Z,9.60
2022-12-22T15:08:09.273Z,9.60
2022-12-22T15:10:44.906Z,9.60
2022-12-22T15:13:21.672Z,9.60
2022-12-22T15:15:51.291Z,9.60
2022-12-22T15:18:24.766Z,9.60
2022-12-22T15:20:52.397Z,9.60
2022-12-22T15:23:19.605Z,9.70
2022-12-22T15:25:47.014Z,9.60
2022-12-22T15:28:14.562Z,9.60
2022-12-22T15:30:42.805Z,9.60
2022-12-22T15:33:19.052Z,9.60
2022-12-22T15:35:46.803Z,9.60
2022-12-22T15:38:17.105Z,9.60
2022-12-22T15:40:44.778Z,9.60
2022-12-22T15:43:29.252Z,9.50
2022-12-22T15:45:59.962Z,9.50
2022-12-22T15:48:30.874Z,9.40
2022-12-22T15:50:58.796Z,9.40
2022-12-22T15:53:26.453Z,9.40
2022-12-22T15:55:55.679Z,9.40
2022-12-22T15:58:27.339Z,9.30
2022-12-22T16:00:54.859Z,9.30
2022-12-22T16:03:22.535Z,9.50
2022-12-22T16:05:49.966Z,9.40
2022-12-22T16:08:21.320Z,9.40
2022-12-22T16:10:49.735Z,9.40
2022-12-22T16:13:25.930Z,9.30
2022-12-22T16:15:53.729Z,9.30
2022-12-22T16:18:21.172Z,9.40
2022-12-22T16:20:50.402Z,9.40
2022-12-22T16:23:26.559Z,9.40
2022-12-22T16:26:01.295Z,9.40
2022-12-22T16:28:29.888Z,9.50
2022-12-22T16:30:57.596Z,9.50
2022-12-22T16:33:24.885Z,9.50
2022-12-22T16:35:52.077Z,9.40
2022-12-22T16:38:19.769Z,9.40
2022-12-22T16:40:50.979Z,9.40
2022-12-22T16:43:48.883Z,9.30
2022-12-22T16:46:19.743Z,9.40
2022-12-22T16:48:59.816Z,9.30
2022-12-22T16:51:34.674Z,9.50
2022-12-22T16:54:02.323Z,9.40
2022-12-22T16:56:31.802Z,9.40
2022-12-22T16:59:00.999Z,9.40
2022-12-22T17:01:38.475Z,9.40
2022-12-22T17:04:13.695Z,9.40
2022-12-22T17:06:41.841Z,9.40
2022-12-22T17:09:16.429Z,9.50
2022-12-22T17:11:46.261Z,9.50
2022-12-22T17:14:23.173Z,9.40
2022-12-22T17:16:50.729Z,9.40
2022-12-22T17:19:18.072Z,9.40
2022-12-22T17:21:45.936Z,9.40
2022-12-22T17:24:25.803Z,9.50
2022-12-22T17:26:55.297Z,9.50
2022-12-22T17:29:24.332Z,9.40
2022-12-22T17:31:56.548Z,9.40
2022-12-22T17:34:24.358Z,9.30
2022-12-22T17:36:51.987Z,9.30
2022-12-22T17:39:21.350Z,9.30
2022-12-22T17:41:56.262Z,9.40
2022-12-22T17:44:26.358Z,9.50
2022-12-22T17:46:53.893Z,9.50
2022-12-22T17:49:22.572Z,9.50
2022-12-22T17:51:50.359Z,9.50
2022-12-22T17:54:28.024Z,9.50
2022-12-22T17:57:02.660Z,9.50
2022-12-22T17:59:30.868Z,9.50
2022-12-22T18:01:59.016Z,9.50
2022-12-22T18:04:26.329Z,9.50
2022-12-22T18:06:54.005Z,9.50
2022-12-22T18:09:25.264Z,9.50
2022-12-22T18:11:53.290Z,9.50
2022-12-22T18:14:22.373Z,9.50
2022-12-22T18:16:49.758Z,9.50
2022-12-22T18:19:16.995Z,9.40
2022-12-22T18:21:44.698Z,9.40
2022-12-22T18:24:16.793Z,9.40
2022-12-22T18:26:44.205Z,9.40
2022-12-22T18:29:16.110Z,9.40
2022-12-22T18:31:44.265Z,9.40
2022-12-22T18:34:12.688Z,9.40
2022-12-22T18:36:42.603Z,9.50
2022-12-22T18:39:19.079Z,9.50
2022-12-22T18:41:46.654Z,9.50
2022-12-22T18:44:18.038Z,9.50
2022-12-22T18:46:46.253Z,9.40
2022-12-22T18:49:14.008Z,9.40
2022-12-22T18:51:43.623Z,9.40
2022-12-22T18:54:33.424Z,9.40
2022-12-22T18:57:00.731Z,9.30
2022-12-22T18:59:28.650Z,9.30
2022-12-22T19:02:11.796Z,9.30
2022-12-22T19:04:39.156Z,9.20
2022-12-22T19:07:15.640Z,9.20
2022-12-22T19:09:43.028Z,9.10
2022-12-22T19:12:13.950Z,9.10
2022-12-22T19:14:47.702Z,9.00
2022-12-22T19:17:19.420Z,9.00
2022-12-22T19:19:46.767Z,9.00
2022-12-22T19:22:15.123Z,9.00
2022-12-22T19:24:45.004Z,9.00
2022-12-22T19:27:24.031Z,9.00
2022-12-22T19:29:59.013Z,9.00
2022-12-22T19:32:36.104Z,9.00
2022-12-22T19:35:03.751Z,9.00
2022-12-22T19:37:31.049Z,9.00
2022-12-22T19:39:58.353Z,9.00
2022-12-22T19:42:26.443Z,9.00
2022-12-22T19:44:53.711Z,8.90
2022-12-22T19:47:24.478Z,8.90
2022-12-22T19:49:51.761Z,8.90
2022-12-22T19:52:18.968Z,8.90
2022-12-22T19:54:46.191Z,8.80
2022-12-22T19:57:22.332Z,8.80
2022-12-22T19:59:51.375Z,8.80
2022-12-22T20:02:27.365Z,8.80
2022-12-22T20:04:55.429Z,8.80
2022-12-22T20:07:25.057Z,8.80
2022-12-22T20:09:52.934Z,8.80
2022-12-22T20:12:34.715Z,8.80
2022-12-22T20:15:07.409Z,8.80
2022-12-22T20:17:34.725Z,8.80
2022-12-22T20:20:01.952Z,8.80
2022-12-22T20:22:29.499Z,8.90
2022-12-22T20:24:56.775Z,8.80
2022-12-22T20:27:29.806Z,8.90
2022-12-22T20:29:57.175Z,8.90
2022-12-22T20:32:27.857Z,8.90
2022-12-22T20:34:55.894Z,8.90
2022-12-22T20:37:23.304Z,8.90
2022-12-22T20:39:50.534Z,8.80
2022-12-22T20:42:19.713Z,8.90
2022-12-22T20:45:02.349Z,8.80
2022-12-22T20:47:33.367Z,8.80
2022-12-22T20:50:00.880Z,8.90
2022-12-22T20:52:28.149Z,8.90
2022-12-22T20:54:55.409Z,8.90
2022-12-22T20:57:23.304Z,8.90
2022-12-22T20:59:55.972Z,8.80
2022-12-22T21:02:28.141Z,8.80
2022-12-22T21:04:56.502Z,8.80
2022-12-22T21:07:23.986Z,8.80
2022-12-22T21:09:51.239Z,8.80
2022-12-22T21:12:18.548Z,8.80
2022-12-22T21:14:45.907Z,8.80
2022-12-22T21:17:17.170Z,8.80
2022-12-22T21:19:44.771Z,8.80
2022-12-22T21:22:12.526Z,8.80
2022-12-22T21:24:41.728Z,8.80
2022-12-22T21:27:17.018Z,8.80
2022-12-22T21:29:44.474Z,8.80
2022-12-22T21:32:15.560Z,8.80
2022-12-22T21:34:42.930Z,8.80
2022-12-22T21:37:17.070Z,8.80
2022-12-22T21:39:45.011Z,8.80
2022-12-22T21:42:19.821Z,8.80
2022-12-22T21:44:47.671Z,8.80
2022-12-22T21:47:18.273Z,8.90
2022-12-22T21:49:45.617Z,8.80
2022-12-22T21:52:12.861Z,8.80
2022-12-22T21:54:40.378Z,8.80
2022-12-22T21:57:11.694Z,8.70
2022-12-22T21:59:38.920Z,8.70
2022-12-22T22:02:16.344Z,8.70
2022-12-22T22:04:48.393Z,8.70
2022-12-22T22:07:21.234Z,8.70
2022-12-22T22:09:48.503Z,8.60
2022-12-22T22:12:33.973Z,8.60
2022-12-22T22:15:01.979Z,8.60
2022-12-22T22:17:30.238Z,8.60
2022-12-22T22:19:57.427Z,8.50
2022-12-22T22:22:24.853Z,8.50
2022-12-22T22:24:52.060Z,8.60
2022-12-22T22:27:19.347Z,8.60
2022-12-22T22:29:46.583Z,8.50
2022-12-22T22:32:13.915Z,8.50
2022-12-22T22:34:41.174Z,8.50
2022-12-22T22:37:08.358Z,8.40
2022-12-22T22:39:35.617Z,8.50
2022-12-22T22:42:03.228Z,8.50
2022-12-22T22:44:30.478Z,8.50
2022-12-22T22:46:57.778Z,8.50
2022-12-22T22:49:28.503Z,8.50
2022-12-22T22:51:56.285Z,8.50
2022-12-22T22:54:23.532Z,8.50
2022-12-22T22:56:51.074Z,8.50
2022-12-22T22:59:19.024Z,8.50
2022-12-22T23:01:46.380Z,8.50
2022-12-22T23:04:13.866Z,8.50
2022-12-22T23:06:44.236Z,8.50
2022-12-22T23:09:11.513Z,8.50
2022-12-22T23:11:38.729Z,8.40
2022-12-22T23:14:06.051Z,8.40
2022-12-22T23:16:38.137Z,8.40
2022-12-22T23:19:06.469Z,8.40
2022-12-22T23:21:33.855Z,8.30
2022-12-22T23:24:01.387Z,8.30
2022-12-22T23:26:28.691Z,8.30
2022-12-22T23:29:02.669Z,8.40
2022-12-22T23:31:34.464Z,8.40
2022-12-22T23:34:01.947Z,8.40
2022-12-22T23:36:29.366Z,8.40
2022-12-22T23:38:57.275Z,8.40
2022-12-22T23:41:24.724Z,8.40
2022-12-22T23:43:53.620Z,8.30
2022-12-22T23:46:21.179Z,8.40
2022-12-22T23:48:53.470Z,8.30
2022-12-22T23:51:22.713Z,8.30
2022-12-22T23:53:50.035Z,8.30
2022-12-22T23:56:17.282Z,8.40
2022-12-22T23:58:47.036Z,8.40
